createdAt,value
2022-09-26T00:04:26.861Z,100961.81
2022-09-26T00:09:32.197Z,100966.31
2022-09-26T00:14:35.237Z,100955.78
2022-09-26T00:19:39.784Z,100941.00
2022-09-26T00:24:42.800Z,100913.75
2022-09-26T00:29:45.759Z,100925.28
2022-09-26T00:34:50.577Z,100905.91
2022-09-26T00:39:53.452Z,100895.28
2022-09-26T00:44:56.973Z,100885.47
2022-09-26T00:50:05.621Z,100880.19
2022-09-26T00:55:12.650Z,100873.03
2022-09-26T01:00:16.894Z,100851.72
2022-09-26T01:05:24.176Z,100844.81
2022-09-26T01:10:27.995Z,100826.38
2022-09-26T01:15:31.975Z,100808.69
2022-09-26T01:20:49.463Z,100786.59
2022-09-26T01:26:10.834Z,100781.31
2022-09-26T01:31:24.162Z,100775.13
2022-09-26T01:37:01.895Z,100769.84
2022-09-26T01:42:15.874Z,100755.59
2022-09-26T01:47:27.699Z,100737.94
2022-09-26T01:52:37.089Z,100743.31
2022-09-26T01:57:46.595Z,100738.91
2022-09-26T02:02:51.993Z,100730.91
2022-09-26T02:08:00.549Z,100716.47
2022-09-26T02:13:09.884Z,100709.78
2022-09-26T02:18:21.325Z,100702.38
2022-09-26T02:23:24.235Z,100686.34
2022-09-26T02:28:32.020Z,100688.72
2022-09-26T02:33:38.534Z,100682.34
2022-09-26T02:38:41.690Z,100671.63
2022-09-26T02:44:19.039Z,100657.53
2022-09-26T02:50:02.142Z,100638.94
2022-09-26T02:55:17.445Z,100631.06
2022-09-26T03:00:24.846Z,100629.16
2022-09-26T03:05:32.200Z,100606.94
2022-09-26T03:10:38.569Z,100603.66
2022-09-26T03:15:45.214Z,100611.94
2022-09-26T03:20:49.935Z,100589.44
2022-09-26T03:26:03.351Z,100577.34
2022-09-26T03:31:08.485Z,100570.44
2022-09-26T03:36:27.488Z,100540.56
2022-09-26T03:41:30.924Z,100544.19
2022-09-26T03:46:57.259Z,100536.38
2022-09-26T03:52:01.900Z,100527.59
2022-09-26T03:57:05.287Z,100509.19
2022-09-26T04:02:12.315Z,100496.97
2022-09-26T04:07:20.810Z,100490.81
2022-09-26T04:12:23.858Z,100472.38
2022-09-26T04:17:27.714Z,100452.22
2022-09-26T04:22:32.891Z,100433.72
2022-09-26T04:27:36.065Z,100420.56
2022-09-26T04:32:39.563Z,100406.50
2022-09-26T04:37:53.232Z,100396.84
2022-09-26T04:42:56.412Z,100388.09
2022-09-26T04:47:59.726Z,100364.00
2022-09-26T04:53:04.323Z,100375.59
2022-09-26T04:58:07.606Z,100371.97
2022-09-26T05:03:13.256Z,100351.69
2022-09-26T05:08:18.311Z,100362.56
2022-09-26T05:13:21.316Z,100350.31
2022-09-26T05:18:26.383Z,100339.38
2022-09-26T05:23:51.212Z,100336.72
2022-09-26T05:28:56.336Z,100323.66
2022-09-26T05:34:04.442Z,100325.72
2022-09-26T05:39:30.525Z,100309.13
2022-09-26T05:44:33.812Z,100292.09
2022-09-26T05:49:38.859Z,100288.97
2022-09-26T05:54:45.952Z,100275.66
2022-09-26T06:00:17.595Z,100256.31
2022-09-26T06:05:23.756Z,100246.84
2022-09-26T06:10:46.436Z,100236.13
2022-09-26T06:15:50.205Z,100229.44
2022-09-26T06:20:53.642Z,100220.03
2022-09-26T06:26:00.032Z,100187.41
2022-09-26T06:31:10.059Z,100187.63
2022-09-26T06:36:31.671Z,100166.56
2022-09-26T06:41:36.270Z,100154.31
2022-09-26T06:46:49.178Z,100140.44
2022-09-26T06:51:58.125Z,100144.03
2022-09-26T06:57:03.876Z,100138.97
2022-09-26T07:02:09.953Z,100123.25
2022-09-26T07:07:42.264Z,100107.50
2022-09-26T07:12:53.246Z,100087.47
2022-09-26T07:17:59.298Z,100078.72
2022-09-26T07:23:21.025Z,100078.66
2022-09-26T07:28:27.897Z,100089.25
2022-09-26T07:33:31.057Z,100058.44
2022-09-26T07:38:38.528Z,100069.13
2022-09-26T07:44:30.235Z,100068.44
2022-09-26T07:49:24.695Z,100065.94
2022-09-26T07:54:46.981Z,100053.84
2022-09-26T08:00:17.562Z,100059.22
2022-09-26T08:05:39.505Z,100039.13
2022-09-26T08:10:45.094Z,100042.09
2022-09-26T08:16:08.923Z,100033.22
2022-09-26T08:21:17.994Z,100018.25
2022-09-26T08:26:23.316Z,100025.38
2022-09-26T08:31:33.584Z,100020.91
2022-09-26T08:36:37.087Z,100011.81
2022-09-26T08:42:05.991Z,100004.41
2022-09-26T08:47:35.505Z,100000.81
2022-09-26T08:53:01.634Z,99985.00
2022-09-26T08:58:18.112Z,99970.97
2022-09-26T09:03:31.152Z,99986.06
2022-09-26T09:08:39.937Z,99981.78
2022-09-26T09:14:15.714Z,99955.44
2022-09-26T09:20:11.254Z,99957.03
2022-09-26T09:25:32.167Z,99948.38
2022-09-26T09:30:42.749Z,99943.34
2022-09-26T09:36:16.084Z,99924.81
2022-09-26T09:41:32.798Z,99926.50
2022-09-26T09:46:40.923Z,99930.78
2022-09-26T09:52:01.257Z,99907.84
2022-09-26T09:57:27.775Z,99920.19
2022-09-26T10:02:41.508Z,99902.59
2022-09-26T10:07:54.047Z,99910.47
2022-09-26T10:13:24.996Z,99881.50
2022-09-26T10:19:00.914Z,99885.03
2022-09-26T10:24:22.399Z,99892.03
2022-09-26T10:29:35.414Z,99877.06
2022-09-26T10:34:40.302Z,99881.53
2022-09-26T10:40:11.082Z,99871.94
2022-09-26T10:45:20.402Z,99872.00
2022-09-26T10:50:39.400Z,99866.72
2022-09-26T10:56:06.450Z,99874.63
2022-09-26T11:01:21.101Z,99863.16
2022-09-26T11:06:27.916Z,99853.47
2022-09-26T11:11:42.265Z,99859.66
2022-09-26T11:16:53.971Z,99850.94
2022-09-26T11:22:07.419Z,99842.22
2022-09-26T11:27:23.827Z,99855.44
2022-09-26T11:32:31.537Z,99840.56
2022-09-26T11:38:28.962Z,99833.63
2022-09-26T11:43:56.767Z,99826.59
2022-09-26T11:49:59.318Z,99828.41
2022-09-26T11:55:16.341Z,99819.59
2022-09-26T12:00:27.516Z,99816.97
2022-09-26T12:05:42.880Z,99816.09
2022-09-26T12:10:57.825Z,99816.13
2022-09-26T12:16:12.872Z,99802.06
2022-09-26T12:21:27.176Z,99806.53
2022-09-26T12:26:40.080Z,99791.59
2022-09-26T12:32:08.226Z,99781.91
2022-09-26T12:37:27.394Z,99781.00
2022-09-26T12:42:45.682Z,99776.59
2022-09-26T12:48:10.543Z,99770.44
2022-09-26T12:53:29.382Z,99766.91
2022-09-26T12:58:49.144Z,99765.13
2022-09-26T13:04:35.580Z,99767.88
2022-09-26T13:09:55.103Z,99773.97
2022-09-26T13:15:09.253Z,99761.63
2022-09-26T13:20:20.009Z,99748.50
2022-09-26T13:25:27.576Z,99736.34
2022-09-26T13:30:35.245Z,99737.25
2022-09-26T13:35:47.216Z,99733.00
2022-09-26T13:40:57.885Z,99726.06
2022-09-26T13:46:16.088Z,99705.03
2022-09-26T13:51:25.917Z,99717.50
2022-09-26T13:56:44.706Z,99708.75
2022-09-26T14:02:19.125Z,99721.09
2022-09-26T14:08:05.058Z,99703.47
2022-09-26T14:13:21.869Z,99705.25
2022-09-26T14:18:34.283Z,99699.03
2022-09-26T14:23:42.233Z,99700.00
2022-09-26T14:28:51.996Z,99685.94
2022-09-26T14:34:12.220Z,99667.41
2022-09-26T14:39:33.613Z,99683.28
2022-09-26T14:44:37.480Z,99669.19
2022-09-26T14:49:41.078Z,99667.38
2022-09-26T14:54:47.040Z,99670.88
2022-09-26T14:59:50.981Z,99671.69
2022-09-26T15:05:04.310Z,99677.78
2022-09-26T15:10:22.050Z,99687.38
2022-09-26T15:15:39.192Z,99675.81
2022-09-26T15:20:49.263Z,99671.38
2022-09-26T15:25:56.474Z,99660.88
2022-09-26T15:31:29.176Z,99653.84
2022-09-26T15:36:34.707Z,99645.06
2022-09-26T15:42:03.259Z,99637.22
2022-09-26T15:47:26.836Z,99649.44
2022-09-26T15:52:35.352Z,99647.69
2022-09-26T15:57:39.979Z,99644.19
2022-09-26T16:02:44.124Z,99642.38
2022-09-26T16:07:50.174Z,99648.50
2022-09-26T16:12:54.765Z,99639.75
2022-09-26T16:18:00.341Z,99647.69
2022-09-26T16:23:05.584Z,99641.63
2022-09-26T16:28:39.408Z,99636.34
2022-09-26T16:33:42.818Z,99624.09
2022-09-26T16:38:53.076Z,99613.56
2022-09-26T16:44:08.611Z,99624.09
2022-09-26T16:49:31.194Z,99618.75
2022-09-26T16:54:34.324Z,99616.13
2022-09-26T16:59:38.670Z,99630.22
2022-09-26T17:04:43.803Z,99627.56
2022-09-26T17:09:46.898Z,99624.91
2022-09-26T17:14:53.245Z,99621.41
2022-09-26T17:19:59.463Z,99629.25
2022-09-26T17:25:02.807Z,99633.63
2022-09-26T17:30:15.972Z,99623.91
2022-09-26T17:35:25.844Z,99636.19
2022-09-26T17:40:31.205Z,99634.97
2022-09-26T17:45:40.654Z,99646.19
2022-09-26T17:50:43.944Z,99653.00
2022-09-26T17:55:47.051Z,99648.44
2022-09-26T18:00:52.905Z,99653.66
2022-09-26T18:05:56.384Z,99643.91
2022-09-26T18:11:02.584Z,99655.28
2022-09-26T18:16:10.536Z,99651.81
2022-09-26T18:21:16.167Z,99652.56
2022-09-26T18:26:27.685Z,99649.06
2022-09-26T18:31:33.174Z,99659.53
2022-09-26T18:36:37.259Z,99663.88
2022-09-26T18:41:40.961Z,99655.91
2022-09-26T18:46:47.183Z,99660.22
2022-09-26T18:51:50.606Z,99668.16
2022-09-26T18:57:11.170Z,99677.81
2022-09-26T19:07:50.544Z,99688.34
2022-09-26T19:12:53.495Z,99689.16
2022-09-26T19:17:57.821Z,99695.47
2022-09-26T19:23:03.541Z,99700.56
2022-09-26T19:28:09.427Z,99710.19
2022-09-26T19:33:16.951Z,99718.91
2022-09-26T19:38:22.172Z,99716.84
2022-09-26T19:43:25.085Z,99720.41
2022-09-26T19:48:34.020Z,99719.66
2022-09-26T19:53:40.786Z,99729.16
2022-09-26T19:58:46.315Z,99728.19
2022-09-26T20:03:51.601Z,99743.81
2022-09-26T20:09:01.273Z,99756.13
2022-09-26T20:14:22.414Z,99754.38
2022-09-26T20:19:34.291Z,99766.56
2022-09-26T20:24:39.967Z,99745.28
2022-09-26T20:30:00.659Z,99750.34
2022-09-26T20:35:06.415Z,99743.16
2022-09-26T20:40:17.665Z,99748.22
2022-09-26T20:45:24.658Z,99751.59
2022-09-26T20:50:34.224Z,99751.72
2022-09-26T20:55:41.834Z,99753.59
2022-09-26T21:00:47.428Z,99763.25
2022-09-26T21:05:51.743Z,99768.56
2022-09-26T21:10:56.058Z,99766.03
2022-09-26T21:16:02.100Z,99762.47
2022-09-26T21:21:08.435Z,99752.91
2022-09-26T21:26:30.048Z,99754.75
2022-09-26T21:31:36.123Z,99742.53
2022-09-26T21:36:41.707Z,99752.94
2022-09-26T21:41:45.336Z,99761.59
2022-09-26T21:46:48.340Z,99756.34
2022-09-26T21:51:59.417Z,99754.69
2022-09-26T21:57:06.901Z,99745.84
2022-09-26T22:02:09.833Z,99739.59
2022-09-26T22:07:14.290Z,99740.44
2022-09-26T22:12:17.248Z,99739.63
2022-09-26T22:17:20.189Z,99731.56
2022-09-26T22:22:24.659Z,99737.72
2022-09-26T22:27:27.662Z,99719.38
2022-09-26T22:32:33.873Z,99729.78
2022-09-26T22:37:39.247Z,99729.59
2022-09-26T22:42:42.398Z,99727.81
2022-09-26T22:47:45.425Z,99730.47
2022-09-26T22:52:49.741Z,99735.81
2022-09-26T22:57:52.758Z,99734.16
2022-09-26T23:02:55.761Z,99739.44
2022-09-26T23:08:00.095Z,99746.53
2022-09-26T23:13:03.492Z,99734.19
2022-09-26T23:18:06.494Z,99748.13
2022-09-26T23:23:12.684Z,99732.88
2022-09-26T23:28:16.034Z,99733.78
2022-09-26T23:33:18.954Z,99744.09
2022-09-26T23:38:23.256Z,99744.91
2022-09-26T23:43:26.360Z,99740.50
2022-09-26T23:48:29.680Z,99751.13
2022-09-26T23:53:34.696Z,99747.59
2022-09-26T23:58:38.205Z,99768.63
